createdAt,value
2018-02-10T00:01:41.256Z,4.56
2018-02-10T00:04:12.319Z,4.53
2018-02-10T00:06:43.385Z,4.40
2018-02-10T00:09:14.439Z,4.41
2018-02-10T00:11:45.511Z,4.43
2018-02-10T00:14:16.748Z,4.36
2018-02-10T00:16:47.818Z,4.27
2018-02-10T00:19:18.934Z,4.29
2018-02-10T00:21:49.962Z,4.35
2018-02-10T00:24:21.010Z,4.46
2018-02-10T00:26:52.046Z,4.52
2018-02-10T00:29:23.109Z,4.56
2018-02-10T00:31:54.157Z,4.51
2018-02-10T00:34:25.242Z,4.46
2018-02-10T00:36:56.330Z,4.46
2018-02-10T00:39:27.386Z,4.46
2018-02-10T00:41:58.449Z,4.51
2018-02-10T00:44:29.519Z,4.54
2018-02-10T00:47:00.603Z,4.57
2018-02-10T00:49:31.639Z,4.54
2018-02-10T00:52:02.724Z,4.42
2018-02-10T00:54:33.769Z,4.42
2018-02-10T00:57:04.810Z,4.39
2018-02-10T00:59:35.886Z,4.31
2018-02-10T01:02:06.989Z,4.28
2018-02-10T01:04:38.088Z,4.30
2018-02-10T01:07:09.167Z,4.40
2018-02-10T01:09:40.224Z,4.39
2018-02-10T01:12:11.259Z,4.48
2018-02-10T01:14:42.391Z,4.52
2018-02-10T01:17:13.436Z,4.60
2018-02-10T01:19:44.538Z,4.56
2018-02-10T01:22:15.545Z,4.53
2018-02-10T01:24:46.614Z,4.41
2018-02-10T01:27:17.689Z,4.23
2018-02-10T01:29:48.722Z,4.27
2018-02-10T01:32:19.753Z,4.33
2018-02-10T01:34:50.806Z,4.39
2018-02-10T01:37:21.895Z,4.45
2018-02-10T01:39:52.946Z,4.50
2018-02-10T01:42:24.056Z,4.55
2018-02-10T01:44:55.118Z,4.53
2018-02-10T01:47:26.206Z,4.55
2018-02-10T01:50:09.714Z,4.56
2018-02-10T01:52:40.751Z,4.54
2018-02-10T01:55:11.821Z,4.59
2018-02-10T01:57:42.912Z,4.64
2018-02-10T02:00:13.973Z,4.63
2018-02-10T02:02:45.040Z,4.48
2018-02-10T02:05:16.184Z,4.46
2018-02-10T02:07:47.290Z,4.52
2018-02-10T02:10:18.359Z,4.58
2018-02-10T02:12:49.402Z,4.55
2018-02-10T02:15:20.458Z,4.40
2018-02-10T02:17:51.498Z,4.43
2018-02-10T02:20:22.899Z,4.53
2018-02-10T02:22:53.945Z,4.63
2018-02-10T02:25:25.059Z,4.65
2018-02-10T02:27:56.100Z,4.63
2018-02-10T02:30:27.193Z,4.60
2018-02-10T02:32:58.266Z,4.61
2018-02-10T02:35:29.292Z,4.65
2018-02-10T02:38:00.378Z,4.59
2018-02-10T02:40:31.426Z,4.60
2018-02-10T02:43:02.518Z,4.62
2018-02-10T02:45:33.565Z,4.61
2018-02-10T02:48:04.640Z,4.62
2018-02-10T02:50:35.669Z,4.68
2018-02-10T02:53:06.761Z,4.69
2018-02-10T02:55:37.856Z,4.74
2018-02-10T02:58:08.927Z,4.77
2018-02-10T03:00:39.974Z,4.80
2018-02-10T03:03:10.998Z,4.81
2018-02-10T03:05:42.100Z,4.75
2018-02-10T03:08:13.173Z,4.70
2018-02-10T03:10:44.215Z,4.67
2018-02-10T03:13:15.267Z,4.61
2018-02-10T03:15:46.523Z,4.58
2018-02-10T03:18:17.570Z,4.58
2018-02-10T03:20:48.690Z,4.55
2018-02-10T03:23:19.953Z,4.55
2018-02-10T03:25:51.061Z,4.53
2018-02-10T03:28:22.125Z,4.50
2018-02-10T03:30:53.202Z,4.50
2018-02-10T03:33:24.251Z,4.52
2018-02-10T03:35:55.323Z,4.58
2018-02-10T03:38:26.377Z,4.60
2018-02-10T03:40:57.422Z,4.51
2018-02-10T03:43:28.516Z,4.47
2018-02-10T03:45:59.597Z,4.52
2018-02-10T03:48:30.615Z,4.51
2018-02-10T03:51:01.691Z,4.52
2018-02-10T03:53:32.778Z,4.53
2018-02-10T03:56:03.830Z,4.53
2018-02-10T03:58:34.876Z,4.54
2018-02-10T04:01:05.931Z,4.56
2018-02-10T04:03:36.977Z,4.55
2018-02-10T04:06:08.105Z,4.51
2018-02-10T04:08:39.181Z,4.46
2018-02-10T04:11:10.279Z,4.42
2018-02-10T04:13:41.346Z,4.36
2018-02-10T04:16:12.435Z,4.39
2018-02-10T04:18:43.528Z,4.41
2018-02-10T04:21:14.578Z,4.46
2018-02-10T04:23:45.645Z,4.45
2018-02-10T04:26:16.701Z,4.42
2018-02-10T04:28:47.769Z,4.36
2018-02-10T04:31:18.822Z,4.25
2018-02-10T04:33:49.879Z,4.24
2018-02-10T04:36:20.946Z,4.20
2018-02-10T04:38:51.994Z,4.19
2018-02-10T04:41:23.211Z,4.22
2018-02-10T04:43:54.361Z,4.29
2018-02-10T04:46:25.401Z,4.25
2018-02-10T04:48:56.485Z,4.27
2018-02-10T04:51:27.563Z,4.25
2018-02-10T04:53:58.633Z,4.21
2018-02-10T04:56:29.715Z,4.24
2018-02-10T04:59:00.794Z,4.29
2018-02-10T05:01:31.841Z,4.34
2018-02-10T05:04:02.910Z,4.32
2018-02-10T05:06:33.999Z,4.35
2018-02-10T05:09:05.075Z,4.34
2018-02-10T05:11:36.145Z,4.35
2018-02-10T05:14:07.191Z,4.35
2018-02-10T05:16:39.204Z,4.30
2018-02-10T05:19:10.278Z,4.31
2018-02-10T05:21:41.362Z,4.28
2018-02-10T05:24:12.411Z,4.30
2018-02-10T05:26:43.493Z,4.31
2018-02-10T05:29:14.518Z,4.28
2018-02-10T05:31:45.592Z,4.25
2018-02-10T05:34:16.705Z,4.27
2018-02-10T05:36:47.772Z,4.27
2018-02-10T05:39:18.869Z,4.32
2018-02-10T05:41:49.929Z,4.33
2018-02-10T05:44:20.995Z,4.28
2018-02-10T05:46:52.095Z,4.25
2018-02-10T05:49:23.149Z,4.23
2018-02-10T05:51:54.259Z,4.23
2018-02-10T05:54:25.308Z,4.16
2018-02-10T05:56:56.353Z,4.12
2018-02-10T05:59:27.462Z,4.11
2018-02-10T06:01:58.514Z,4.16
2018-02-10T06:04:29.588Z,4.24
2018-02-10T06:07:00.689Z,4.25
2018-02-10T06:09:31.799Z,4.19
2018-02-10T06:12:02.855Z,4.13
2018-02-10T06:14:33.940Z,4.07
2018-02-10T06:17:04.999Z,4.08
2018-02-10T06:19:36.123Z,4.11
2018-02-10T06:22:07.198Z,4.12
2018-02-10T06:24:38.305Z,4.17
2018-02-10T06:27:09.368Z,4.20
2018-02-10T06:29:40.489Z,4.25
2018-02-10T06:32:11.541Z,4.28
2018-02-10T06:34:42.606Z,4.29
2018-02-10T06:37:13.638Z,4.29
2018-02-10T06:39:44.710Z,4.31
2018-02-10T06:42:15.753Z,4.27
2018-02-10T06:44:46.798Z,4.23
2018-02-10T06:47:17.999Z,4.23
2018-02-10T06:49:49.084Z,4.30
2018-02-10T06:52:20.140Z,4.31
2018-02-10T06:54:51.184Z,4.32
2018-02-10T06:57:23.006Z,4.30
2018-02-10T06:59:54.070Z,4.35
2018-02-10T07:02:25.150Z,4.38
2018-02-10T07:04:56.204Z,4.41
2018-02-10T07:07:27.334Z,4.46
2018-02-10T07:09:58.360Z,4.54
2018-02-10T07:12:29.418Z,4.60
2018-02-10T07:15:00.501Z,4.63
2018-02-10T07:17:31.522Z,4.64
2018-02-10T07:20:02.842Z,4.69
2018-02-10T07:22:34.381Z,4.76
2018-02-10T07:25:05.482Z,4.83
2018-02-10T07:27:36.525Z,4.88
2018-02-10T07:30:07.665Z,4.89
2018-02-10T07:32:38.683Z,4.95
2018-02-10T07:35:09.759Z,5.06
2018-02-10T07:37:40.805Z,5.15
2018-02-10T07:40:11.866Z,5.19
2018-02-10T07:42:42.953Z,5.23
2018-02-10T07:45:14.027Z,5.34
2018-02-10T07:47:45.096Z,5.40
2018-02-10T07:50:16.228Z,5.39
2018-02-10T07:52:47.251Z,5.47
2018-02-10T07:55:18.311Z,5.50
2018-02-10T07:57:49.389Z,5.44
2018-02-10T08:00:20.438Z,5.46
2018-02-10T08:02:51.510Z,5.49
2018-02-10T08:05:22.596Z,5.52
2018-02-10T08:07:53.663Z,5.66
2018-02-10T08:10:24.763Z,5.78
2018-02-10T08:12:55.817Z,5.83
2018-02-10T08:15:26.836Z,5.80
2018-02-10T08:17:57.886Z,5.80
2018-02-10T08:20:28.936Z,5.72
2018-02-10T08:22:59.995Z,5.76
2018-02-10T08:25:31.042Z,5.91
2018-02-10T08:28:02.114Z,5.96
2018-02-10T08:30:33.190Z,6.00
2018-02-10T08:33:04.279Z,6.17
2018-02-10T08:35:35.336Z,6.17
2018-02-10T08:38:07.245Z,6.15
2018-02-10T08:40:38.323Z,6.14
2018-02-10T08:43:09.434Z,6.14
2018-02-10T08:45:40.486Z,6.26
2018-02-10T08:48:11.513Z,6.32
2018-02-10T08:50:42.626Z,6.37
2018-02-10T08:53:13.753Z,6.42
2018-02-10T08:55:44.861Z,6.51
2018-02-10T08:58:15.894Z,6.60
2018-02-10T09:00:46.981Z,6.73
2018-02-10T09:03:18.025Z,6.70
2018-02-10T09:05:49.079Z,6.72
2018-02-10T09:08:20.165Z,6.99
2018-02-10T09:10:51.243Z,6.98
2018-02-10T09:13:22.283Z,7.01
2018-02-10T09:15:53.305Z,7.07
2018-02-10T09:18:24.357Z,7.18
2018-02-10T09:20:55.545Z,7.27
2018-02-10T09:23:26.797Z,7.40
2018-02-10T09:25:58.173Z,7.39
2018-02-10T09:28:29.275Z,7.52
2018-02-10T09:31:00.300Z,7.58
2018-02-10T09:33:31.447Z,7.58
2018-02-10T09:36:02.510Z,7.68
2018-02-10T09:38:33.613Z,7.72
2018-02-10T09:41:05.045Z,7.69
2018-02-10T09:43:36.131Z,7.77
2018-02-10T09:46:07.264Z,7.83
